Time;durP1;ratioP1;P1;durP2;ratioP2;P2;SDS_P1;SDS_P2;PMS_P1;PMS_P2;Temp;Humidity;BMP_temperature;BMP_pressure;BME280_temperature;BME280_humidity;BME280_pressure;Samples;Min_cycle;Max_cycle;Signal;HPM_P1;HPM_P2
2023/05/08 00:01:15;;;;;;;0.32;0.30;;;14.20;95.10;;;;;;5092784;28;20180;-75
2023/05/08 00:03:47;;;;;;;0.93;0.35;;;14.10;94.60;;;;;;5092560;28;20207;-75
2023/05/08 00:06:18;;;;;;;2.17;0.35;;;14.00;95.70;;;;;;5092250;28;20690;-75
2023/05/08 00:08:49;;;;;;;3.05;0.52;;;14.30;95.50;;;;;;5101701;28;20223;-75
2023/05/08 00:11:21;;;;;;;2.33;0.20;;;14.50;95.30;;;;;;5109178;28;20248;-75
2023/05/08 00:13:52;;;;;;;1.15;0.30;;;14.50;94.20;;;;;;5109462;28;20203;-75
2023/05/08 00:16:26;;;;;;;0.77;0.30;;;14.80;95.20;;;;;;5083087;28;20574;-75
2023/05/08 00:18:59;;;;;;;0.77;0.30;;;14.90;94.00;;;;;;5073985;28;20539;-77
2023/05/08 00:21:30;;;;;;;0.77;0.35;;;15.10;94.30;;;;;;5085115;28;20266;-75
2023/05/08 00:24:02;;;;;;;0.75;0.55;;;15.30;94.40;;;;;;5091260;28;20229;-77
2023/05/08 00:26:33;;;;;;;0.50;0.32;;;15.50;93.60;;;;;;5089996;28;20187;-75
2023/05/08 00:29:04;;;;;;;1.15;0.40;;;15.30;92.50;;;;;;5079856;28;20220;-76
2023/05/08 00:31:37;;;;;;;0.70;0.22;;;15.30;92.60;;;;;;5092817;28;20277;-75
2023/05/08 00:34:08;;;;;;;0.45;0.30;;;15.40;92.40;;;;;;5083223;28;20234;-76
2023/05/08 00:36:39;;;;;;;0.60;0.30;;;15.50;91.90;;;;;;5081450;28;20195;-75
2023/05/08 00:39:10;;;;;;;1.10;0.50;;;15.50;91.60;;;;;;5091517;28;20195;-77
2023/05/08 00:41:41;;;;;;;1.88;0.38;;;15.60;90.80;;;;;;5090803;28;20196;-76
2023/05/08 00:44:12;;;;;;;2.00;0.38;;;15.60;91.20;;;;;;5090860;28;20562;-76
2023/05/08 00:46:46;;;;;;;0.32;0.30;;;15.70;91.50;;;;;;5072254;28;20220;-76
2023/05/08 00:49:18;;;;;;;0.93;0.35;;;15.70;91.00;;;;;;5085757;28;20260;-76
2023/05/08 00:51:51;;;;;;;0.70;0.30;;;15.60;90.70;;;;;;5090892;28;20195;-76
2023/05/08 00:54:23;;;;;;;0.80;0.40;;;15.80;91.90;;;;;;5090137;28;20205;-76
2023/05/08 00:56:55;;;;;;;2.05;0.38;;;16.00;90.60;;;;;;5091529;28;20200;-76
2023/05/08 00:59:28;;;;;;;0.80;0.40;;;15.90;90.30;;;;;;5091179;28;20581;-76
2023/05/08 01:02:02;;;;;;;0.55;0.40;;;15.80;89.70;;;;;;5091539;28;20638;-76
2023/05/08 01:04:34;;;;;;;1.63;0.57;;;15.60;90.40;;;;;;5091400;28;20195;-75
2023/05/08 01:07:06;;;;;;;1.35;0.40;;;15.60;90.30;;;;;;5086985;28;20219;-76
2023/05/08 01:09:37;;;;;;;0.73;0.45;;;15.70;89.20;;;;;;5088836;28;20219;-76
2023/05/08 01:12:26;;;;;;;1.38;0.60;;;15.80;88.90;;;;;;5089205;28;20196;-76
2023/05/08 01:15:07;;;;;;;1.08;0.30;;;16.00;89.80;;;;;;5085934;28;20221;-77
2023/05/08 01:17:54;;;;;;;0.35;0.30;;;16.10;86.80;;;;;;5085455;28;20608;-76
2023/05/08 01:20:37;;;;;;;1.85;0.40;;;16.20;86.40;;;;;;5076140;28;20192;-76
2023/05/08 01:23:34;;;;;;;2.15;0.40;;;16.30;85.90;;;;;;5085330;28;20596;-77
2023/05/08 01:26:42;;;;;;;1.17;0.50;;;16.20;86.50;;;;;;5084796;28;20234;-76
2023/05/08 01:29:50;;;;;;;0.63;0.40;;;16.20;86.40;;;;;;5073163;28;20685;-77
2023/05/08 01:32:27;;;;;;;0.20;0.20;;;16.20;87.10;;;;;;5078651;28;20658;-76
2023/05/08 01:35:07;;;;;;;1.40;0.43;;;16.20;87.90;;;;;;5086484;28;20260;-76
2023/05/08 01:37:41;;;;;;;0.30;0.25;;;16.20;87.60;;;;;;5084950;28;20195;-76
2023/05/08 01:40:22;;;;;;;2.30;0.47;;;16.20;87.50;;;;;;5088654;28;20677;-76
2023/05/08 01:43:02;;;;;;;0.93;0.30;;;16.10;86.30;;;;;;5089116;28;20190;-77
2023/05/08 01:45:39;;;;;;;1.38;0.30;;;16.10;85.50;;;;;;5075851;28;20202;-76
2023/05/08 01:48:18;;;;;;;1.45;0.25;;;16.20;85.90;;;;;;5086648;28;20195;-76
2023/05/08 01:50:54;;;;;;;1.35;0.50;;;16.30;84.90;;;;;;5087791;28;20658;-76
2023/05/08 01:53:32;;;;;;;1.63;0.50;;;16.40;86.50;;;;;;5079262;28;20196;-76
2023/05/08 01:56:10;;;;;;;0.55;0.40;;;16.60;86.20;;;;;;5087759;28;20199;-77
2023/05/08 01:58:41;;;;;;;3.72;0.73;;;17.00;87.60;;;;;;5082433;28;20192;-77
2023/05/08 02:01:14;;;;;;;0.40;0.30;;;17.10;86.90;;;;;;5086815;28;20206;-77
2023/05/08 02:03:48;;;;;;;0.75;0.28;;;17.10;82.70;;;;;;5088783;28;20630;-77
2023/05/08 02:06:23;;;;;;;0.57;0.30;;;17.10;82.10;;;;;;5093441;28;20201;-76
2023/05/08 02:08:55;;;;;;;0.98;0.38;;;17.00;81.40;;;;;;5100718;28;20577;-77
2023/05/08 02:11:27;;;;;;;0.40;0.20;;;16.80;81.00;;;;;;5090975;28;20712;-77
2023/05/08 02:14:01;;;;;;;1.63;0.50;;;16.60;82.90;;;;;;5091282;28;20219;-76
2023/05/08 02:16:33;;;;;;;0.60;0.32;;;16.60;83.10;;;;;;5079797;28;20190;-76
2023/05/08 02:19:09;;;;;;;1.02;0.47;;;16.70;83.10;;;;;;5086958;28;20191;-76
2023/05/08 02:21:40;;;;;;;0.95;0.60;;;16.90;83.30;;;;;;5091438;28;20198;-76
2023/05/08 02:24:13;;;;;;;0.80;0.40;;;17.00;82.00;;;;;;5091006;28;20724;-76
2023/05/08 02:26:46;;;;;;;0.77;0.43;;;17.00;82.90;;;;;;5092571;28;20212;-78
2023/05/08 02:29:18;;;;;;;0.68;0.38;;;17.20;82.90;;;;;;5086939;28;20545;-77
2023/05/08 02:31:51;;;;;;;1.25;0.40;;;17.10;81.60;;;;;;5093243;28;20681;-77
2023/05/08 02:34:27;;;;;;;0.32;0.20;;;17.10;81.50;;;;;;5090255;28;20203;-77
2023/05/08 02:36:59;;;;;;;1.95;0.30;;;17.20;81.10;;;;;;5098380;28;20206;-76
2023/05/08 02:39:35;;;;;;;1.13;0.20;;;17.20;77.80;;;;;;5097888;28;20199;-77
2023/05/08 02:42:06;;;;;;;1.35;0.40;;;17.00;77.90;;;;;;5094570;28;20221;-77
2023/05/08 02:44:37;;;;;;;1.73;0.70;;;17.00;79.20;;;;;;5092243;28;20658;-76
2023/05/08 02:47:17;;;;;;;0.88;0.50;;;17.00;79.90;;;;;;5091674;28;20199;-77
2023/05/08 02:49:54;;;;;;;1.52;0.30;;;17.10;80.80;;;;;;5090199;28;20241;-77
2023/05/08 02:52:30;;;;;;;0.38;0.30;;;17.00;77.40;;;;;;5092818;28;20850;-77
2023/05/08 02:55:04;;;;;;;1.23;0.38;;;17.00;78.30;;;;;;5092458;28;20194;-77
2023/05/08 02:57:45;;;;;;;0.52;0.30;;;16.90;76.60;;;;;;5090356;28;20198;-76
2023/05/08 03:00:21;;;;;;;0.68;0.30;;;16.70;76.10;;;;;;5084729;28;20208;-76
2023/05/08 03:02:56;;;;;;;2.85;0.40;;;16.50;77.00;;;;;;5086833;28;20277;-77
2023/05/08 03:05:33;;;;;;;2.45;0.40;;;16.50;77.80;;;;;;5091524;28;20234;-78
2023/05/08 03:08:10;;;;;;;0.80;0.30;;;16.60;78.00;;;;;;5091702;28;20230;-78
2023/05/08 03:10:44;;;;;;;0.50;0.30;;;16.60;77.30;;;;;;5088081;28;20219;-77
2023/05/08 03:13:18;;;;;;;0.57;0.20;;;16.60;77.60;;;;;;5090751;28;20321;-78
2023/05/08 03:15:54;;;;;;;0.75;0.40;;;16.60;77.90;;;;;;5083492;28;20200;-78
2023/05/08 03:18:28;;;;;;;1.23;0.65;;;16.70;79.40;;;;;;5089902;28;20198;-76
2023/05/08 03:21:03;;;;;;;0.65;0.40;;;16.60;78.00;;;;;;5089541;28;20314;-75
2023/05/08 03:23:37;;;;;;;2.70;0.40;;;16.60;76.90;;;;;;5089514;28;20236;-76
2023/05/08 03:26:09;;;;;;;1.98;0.47;;;16.70;78.00;;;;;;5095829;28;20199;-75
2023/05/08 03:28:41;;;;;;;3.95;0.68;;;16.70;77.40;;;;;;5092635;28;20836;-76
2023/05/08 03:31:15;;;;;;;4.43;0.90;;;16.70;78.80;;;;;;5085232;28;20732;-76
2023/05/08 03:33:47;;;;;;;3.28;0.88;;;16.90;78.70;;;;;;5093999;28;20658;-76
2023/05/08 03:36:21;;;;;;;2.10;0.60;;;16.90;79.40;;;;;;5092011;28;20200;-77
2023/05/08 03:38:54;;;;;;;6.20;0.52;;;17.00;78.10;;;;;;5092029;28;20221;-75
2023/05/08 03:41:26;;;;;;;3.45;0.50;;;17.10;77.20;;;;;;5090509;28;20226;-76
2023/05/08 03:43:58;;;;;;;1.77;0.60;;;17.10;75.10;;;;;;5087255;28;20685;-76
2023/05/08 03:46:30;;;;;;;2.90;0.43;;;17.10;71.40;;;;;;5091614;28;20202;-75
2023/05/08 03:49:05;;;;;;;1.90;0.40;;;17.10;68.50;;;;;;5086685;28;20223;-77
2023/05/08 03:51:40;;;;;;;0.60;0.30;;;17.10;69.90;;;;;;5089579;28;20227;-76
2023/05/08 03:54:12;;;;;;;1.33;0.57;;;17.10;68.20;;;;;;5090128;28;20634;-76
2023/05/08 03:56:44;;;;;;;1.08;0.40;;;17.10;69.10;;;;;;5092570;28;20223;-76
2023/05/08 03:59:23;;;;;;;0.85;0.35;;;17.10;65.30;;;;;;5091398;28;20547;-76
2023/05/08 04:02:01;;;;;;;2.50;0.50;;;17.00;64.00;;;;;;5087887;28;20195;-77
2023/05/08 04:04:39;;;;;;;1.55;0.40;;;17.00;63.80;;;;;;5092737;28;20191;-75
2023/05/08 04:07:21;;;;;;;0.98;0.40;;;17.10;64.90;;;;;;5103651;28;20720;-76
2023/05/08 04:10:05;;;;;;;2.05;0.45;;;17.00;65.30;;;;;;5084745;28;20219;-76
2023/05/08 04:12:46;;;;;;;2.25;0.30;;;17.10;64.10;;;;;;5093951;28;20264;-78
2023/05/08 04:15:23;;;;;;;1.50;0.40;;;17.10;63.40;;;;;;5094519;28;20203;-76
2023/05/08 04:17:59;;;;;;;2.03;0.40;;;17.00;65.00;;;;;;5096752;28;20191;-76
2023/05/08 04:20:31;;;;;;;1.75;0.30;;;17.10;64.00;;;;;;5094680;28;20240;-76
2023/05/08 04:23:07;;;;;;;1.88;0.43;;;17.10;62.00;;;;;;5085562;28;20227;-76
2023/05/08 04:25:41;;;;;;;1.52;0.40;;;17.00;62.10;;;;;;5088939;28;20701;-76
2023/05/08 04:28:13;;;;;;;0.73;0.40;;;17.00;63.40;;;;;;5093408;28;21109;-76
2023/05/08 04:30:45;;;;;;;1.30;0.60;;;17.10;63.60;;;;;;5094182;28;20230;-76
2023/05/08 04:33:17;;;;;;;0.75;0.38;;;17.10;63.10;;;;;;5083089;28;20210;-76
2023/05/08 04:35:49;;;;;;;2.25;0.40;;;17.10;62.40;;;;;;5084079;28;20227;-76
2023/05/08 04:38:22;;;;;;;3.65;0.50;;;17.10;61.10;;;;;;5085494;28;20218;-76
2023/05/08 04:40:53;;;;;;;1.75;0.45;;;17.00;60.80;;;;;;5103356;28;20210;-77
2023/05/08 04:43:25;;;;;;;1.35;0.50;;;16.90;60.60;;;;;;5086916;28;20196;-75
2023/05/08 04:45:56;;;;;;;1.85;0.50;;;16.90;60.40;;;;;;5090360;28;20198;-76
2023/05/08 04:48:27;;;;;;;1.52;0.47;;;16.90;59.20;;;;;;5089235;28;20206;-77
2023/05/08 04:50:58;;;;;;;3.38;0.88;;;16.90;61.00;;;;;;5087082;28;20237;-77
2023/05/08 04:53:31;;;;;;;1.90;0.60;;;16.90;62.40;;;;;;5088953;28;20207;-78
2023/05/08 04:56:02;;;;;;;1.45;0.40;;;16.90;61.00;;;;;;5095062;28;20293;-77
2023/05/08 04:58:40;;;;;;;1.90;0.50;;;16.90;61.50;;;;;;5089051;28;20202;-77
2023/05/08 05:01:11;;;;;;;1.25;0.40;;;17.00;63.20;;;;;;5096336;28;20202;-77
2023/05/08 05:03:42;;;;;;;2.17;0.43;;;16.90;62.70;;;;;;5090904;28;20662;-76
2023/05/08 05:06:13;;;;;;;1.60;0.57;;;16.90;61.40;;;;;;5084708;28;20655;-76
2023/05/08 05:08:46;;;;;;;0.95;0.40;;;16.80;62.30;;;;;;5086201;28;20195;-77
2023/05/08 05:11:17;;;;;;;1.40;0.43;;;16.80;61.30;;;;;;5089640;28;20275;-77
2023/05/08 05:13:48;;;;;;;1.02;0.32;;;16.80;63.90;;;;;;5086357;28;20593;-76
2023/05/08 05:16:19;;;;;;;1.38;0.40;;;16.80;62.40;;;;;;5084733;28;20207;-76
2023/05/08 05:18:50;;;;;;;1.48;0.40;;;16.80;62.20;;;;;;5083506;28;20284;-77
2023/05/08 05:21:22;;;;;;;2.40;0.63;;;16.70;62.60;;;;;;5084460;28;20195;-77
2023/05/08 05:23:55;;;;;;;1.15;0.50;;;16.80;61.70;;;;;;5087836;28;20778;-77
2023/05/08 05:26:26;;;;;;;2.80;0.50;;;16.80;62.80;;;;;;5085958;28;20207;-78
2023/05/08 05:28:57;;;;;;;1.70;0.40;;;16.80;62.50;;;;;;5086149;28;20191;-77
2023/05/08 05:31:30;;;;;;;1.13;0.35;;;16.80;60.90;;;;;;5089885;28;20222;-77
2023/05/08 05:34:01;;;;;;;1.15;0.60;;;16.80;63.70;;;;;;5099556;28;20195;-77
2023/05/08 05:36:33;;;;;;;3.20;0.50;;;16.90;61.40;;;;;;5104869;28;20196;-76
2023/05/08 05:39:06;;;;;;;2.28;0.50;;;16.90;62.30;;;;;;5105760;28;20221;-77
2023/05/08 05:41:37;;;;;;;0.60;0.40;;;16.90;63.10;;;;;;5100993;28;20204;-77
2023/05/08 05:44:08;;;;;;;1.45;0.60;;;16.80;63.00;;;;;;5092583;28;20203;-77
2023/05/08 05:46:39;;;;;;;0.73;0.60;;;16.80;61.70;;;;;;5088488;28;20195;-77
2023/05/08 05:49:10;;;;;;;2.63;0.52;;;16.80;62.00;;;;;;5100598;28;20210;-77
2023/05/08 05:51:43;;;;;;;4.72;0.80;;;16.80;62.60;;;;;;5101313;28;20217;-77
2023/05/08 05:54:16;;;;;;;1.48;0.50;;;16.80;62.80;;;;;;5072527;28;20567;-77
2023/05/08 05:56:47;;;;;;;4.18;0.50;;;16.90;63.60;;;;;;5087813;28;20199;-76
2023/05/08 05:59:18;;;;;;;5.60;0.95;;;16.90;62.90;;;;;;5091790;28;20195;-76
2023/05/08 06:01:49;;;;;;;3.15;0.68;;;16.90;62.00;;;;;;5090476;28;20230;-77
2023/05/08 06:04:20;;;;;;;1.83;0.60;;;17.00;63.30;;;;;;5076860;28;20230;-77
2023/05/08 06:06:51;;;;;;;1.98;0.75;;;17.10;62.30;;;;;;5081069;28;20688;-77
2023/05/08 06:09:24;;;;;;;2.05;0.60;;;17.10;63.90;;;;;;5082588;28;20237;-76
2023/05/08 06:11:55;;;;;;;2.50;0.68;;;17.10;63.50;;;;;;5089432;28;20233;-76
2023/05/08 06:14:26;;;;;;;3.25;0.98;;;17.00;64.20;;;;;;5085218;28;20205;-76
2023/05/08 06:16:57;;;;;;;3.03;0.90;;;17.00;61.90;;;;;;5077511;28;20188;-76
2023/05/08 06:19:29;;;;;;;3.90;0.82;;;17.00;64.20;;;;;;5084918;28;20203;-76
2023/05/08 06:22:00;;;;;;;1.67;0.73;;;17.10;64.50;;;;;;5088154;28;20199;-75
2023/05/08 06:24:35;;;;;;;2.80;0.77;;;17.20;64.50;;;;;;5093362;28;20210;-75
2023/05/08 06:27:06;;;;;;;1.40;0.70;;;17.20;62.60;;;;;;5088172;28;20202;-76
2023/05/08 06:29:37;;;;;;;4.10;0.60;;;17.10;64.00;;;;;;5092664;28;20205;-77
2023/05/08 06:32:08;;;;;;;2.13;0.80;;;17.10;63.60;;;;;;5093672;28;20223;-76
2023/05/08 06:34:39;;;;;;;2.65;0.80;;;17.10;63.30;;;;;;5091422;28;20206;-75
2023/05/08 06:37:10;;;;;;;2.85;0.80;;;17.00;64.50;;;;;;5093517;28;20210;-75
2023/05/08 06:39:44;;;;;;;2.03;0.82;;;17.00;63.90;;;;;;5088760;28;20196;-77
2023/05/08 06:42:15;;;;;;;2.72;0.60;;;17.00;65.30;;;;;;5080000;28;20206;-76
2023/05/08 06:44:46;;;;;;;1.17;0.57;;;17.00;64.60;;;;;;5091988;28;20242;-78
2023/05/08 06:47:17;;;;;;;1.77;0.70;;;16.90;64.60;;;;;;5093352;28;20282;-78
2023/05/08 06:49:48;;;;;;;2.47;0.60;;;16.90;66.90;;;;;;5090917;28;20218;-77
2023/05/08 06:52:19;;;;;;;2.55;0.77;;;17.00;67.00;;;;;;5084432;28;20223;-75
2023/05/08 06:54:52;;;;;;;2.95;0.80;;;16.90;67.40;;;;;;5086255;28;20202;-76
2023/05/08 06:57:25;;;;;;;2.58;0.73;;;16.90;69.40;;;;;;5093640;28;20299;-78
2023/05/08 06:59:56;;;;;;;2.25;0.70;;;17.00;69.60;;;;;;5091193;28;20195;-77
2023/05/08 07:02:29;;;;;;;2.67;0.88;;;16.90;69.10;;;;;;5093409;28;20206;-77
2023/05/08 07:05:00;;;;;;;4.57;0.80;;;17.00;69.50;;;;;;5089898;28;20203;-78
2023/05/08 07:07:31;;;;;;;2.42;0.77;;;16.80;69.00;;;;;;5079854;28;20195;-78
2023/05/08 07:10:04;;;;;;;3.90;0.98;;;16.80;69.00;;;;;;5095145;28;20225;-77
2023/05/08 07:12:36;;;;;;;4.18;1.00;;;16.80;68.70;;;;;;5094025;28;20253;-78
2023/05/08 07:15:07;;;;;;;8.63;2.67;;;16.80;68.00;;;;;;5092546;28;20210;-78
2023/05/08 07:17:40;;;;;;;2.85;0.93;;;16.80;68.40;;;;;;5088969;28;20222;-79
2023/05/08 07:20:12;;;;;;;4.00;1.35;;;16.80;67.20;;;;;;5079829;28;20626;-76
2023/05/08 07:22:43;;;;;;;3.72;0.90;;;16.70;64.80;;;;;;5087399;28;20242;-77
2023/05/08 07:25:16;;;;;;;3.22;0.95;;;16.80;65.00;;;;;;5079048;28;20215;-77
2023/05/08 07:27:47;;;;;;;1.67;0.80;;;16.80;64.70;;;;;;5088401;28;20211;-76
2023/05/08 07:30:19;;;;;;;2.08;0.73;;;16.80;65.40;;;;;;5089635;28;20211;-76
2023/05/08 07:32:50;;;;;;;2.05;0.70;;;16.80;64.90;;;;;;5090234;28;20235;-76
2023/05/08 07:35:21;;;;;;;3.58;0.93;;;16.70;66.70;;;;;;5093331;28;20199;-76
2023/05/08 07:37:52;;;;;;;3.67;0.90;;;16.70;66.70;;;;;;5090390;28;20684;-76
2023/05/08 07:40:25;;;;;;;0.90;0.60;;;16.70;67.30;;;;;;5090846;28;20199;-75
2023/05/08 07:42:56;;;;;;;3.35;0.80;;;16.70;68.80;;;;;;5090904;28;20203;-75
2023/05/08 07:45:28;;;;;;;2.95;1.10;;;16.70;68.00;;;;;;5093002;28;20341;-75
2023/05/08 07:48:01;;;;;;;2.28;1.20;;;16.60;69.00;;;;;;5093225;28;20203;-76
2023/05/08 07:50:32;;;;;;;4.80;1.00;;;16.60;70.60;;;;;;5092667;28;20202;-76
2023/05/08 07:53:05;;;;;;;1.63;1.10;;;16.60;70.10;;;;;;5082675;28;20219;-76
2023/05/08 07:55:38;;;;;;;4.72;1.25;;;16.60;71.60;;;;;;5079668;28;20579;-76
2023/05/08 07:58:09;;;;;;;3.22;1.30;;;16.60;71.80;;;;;;5074264;28;20207;-77
2023/05/08 08:00:41;;;;;;;3.92;1.27;;;16.60;73.40;;;;;;5091059;28;20554;-76
2023/05/08 08:03:12;;;;;;;1.85;0.90;;;16.60;71.60;;;;;;5092606;28;20203;-78
2023/05/08 08:05:43;;;;;;;2.35;0.80;;;16.40;71.70;;;;;;5089279;28;20206;-77
2023/05/08 08:08:14;;;;;;;2.03;1.05;;;16.40;72.20;;;;;;5090534;28;20206;-77
2023/05/08 08:10:47;;;;;;;6.45;1.60;;;16.40;72.60;;;;;;5086703;28;20566;-77
2023/05/08 08:13:19;;;;;;;2.65;1.35;;;16.30;71.80;;;;;;5088453;28;20238;-78
2023/05/08 08:15:50;;;;;;;3.72;1.60;;;16.30;72.30;;;;;;5092974;28;20206;-77
2023/05/08 08:18:22;;;;;;;2.45;1.30;;;16.40;73.30;;;;;;5092879;28;20198;-77
2023/05/08 08:20:53;;;;;;;1.73;0.90;;;16.30;72.00;;;;;;5091655;28;20195;-77
2023/05/08 08:23:24;;;;;;;5.53;1.55;;;16.30;71.50;;;;;;5089127;28;20238;-77
2023/05/08 08:25:57;;;;;;;2.53;1.05;;;16.30;72.70;;;;;;5090985;28;20203;-77
2023/05/08 08:28:28;;;;;;;1.38;1.10;;;16.30;71.50;;;;;;5088079;28;20578;-77
2023/05/08 08:31:00;;;;;;;2.30;1.10;;;16.20;71.80;;;;;;5092086;28;20209;-77
2023/05/08 08:33:31;;;;;;;3.33;1.10;;;16.20;71.20;;;;;;5089932;28;20203;-78
2023/05/08 08:36:02;;;;;;;2.38;1.30;;;16.10;71.80;;;;;;5083648;28;20213;-78
2023/05/08 08:38:33;;;;;;;3.28;2.10;;;16.10;72.00;;;;;;5083849;28;20270;-79
2023/05/08 08:41:06;;;;;;;7.72;3.00;;;16.10;72.30;;;;;;5083805;28;20192;-80
2023/05/08 08:43:42;;;;;;;10.73;4.80;;;16.00;72.70;;;;;;5086085;28;20654;-81
2023/05/08 08:46:15;;;;;;;4.55;3.05;;;16.00;73.30;;;;;;5086887;28;20697;-77
2023/05/08 08:48:47;;;;;;;6.53;3.28;;;16.00;72.80;;;;;;5088975;28;20211;-79
2023/05/08 08:51:27;;;;;;;5.65;2.22;;;15.90;73.60;;;;;;5088801;28;20229;-77
2023/05/08 08:54:06;;;;;;;3.00;1.80;;;15.80;73.30;;;;;;5085693;28;20249;-77
2023/05/08 08:56:41;;;;;;;4.40;1.95;;;15.80;73.60;;;;;;5087062;28;20226;-79
2023/05/08 08:59:14;;;;;;;2.10;1.40;;;15.80;73.30;;;;;;5094028;28;20632;-77
2023/05/08 09:01:49;;;;;;;2.50;1.45;;;15.80;73.90;;;;;;5089317;28;20200;-77
2023/05/08 09:04:20;;;;;;;4.03;1.95;;;15.80;74.10;;;;;;5071658;28;20278;-77
2023/05/08 09:06:52;;;;;;;2.75;1.70;;;15.80;74.30;;;;;;5075093;28;20234;-77
2023/05/08 09:09:24;;;;;;;2.10;1.40;;;15.70;74.90;;;;;;5090602;28;20213;-77
2023/05/08 09:11:57;;;;;;;2.17;1.60;;;15.70;76.30;;;;;;5088381;28;20654;-77
2023/05/08 09:14:29;;;;;;;4.95;2.13;;;15.70;75.00;;;;;;5109608;28;20593;-77
2023/05/08 09:17:00;;;;;;;2.47;1.40;;;15.70;75.10;;;;;;5090507;28;20709;-76
2023/05/08 09:19:32;;;;;;;5.53;3.00;;;15.60;75.70;;;;;;5089555;28;20264;-77
2023/05/08 09:22:05;;;;;;;3.63;1.48;;;15.60;76.20;;;;;;5088596;28;20196;-77
2023/05/08 09:24:59;;;;;;;3.00;2.38;;;15.50;77.50;;;;;;5087611;28;20199;-77
2023/05/08 09:27:33;;;;;;;3.92;2.10;;;15.40;78.70;;;;;;5079611;28;20473;-77
2023/05/08 09:30:06;;;;;;;5.18;2.70;;;15.50;80.40;;;;;;5086087;28;20198;-77
2023/05/08 09:32:38;;;;;;;8.15;3.05;;;15.40;81.90;;;;;;5086709;28;20222;-77
2023/05/08 09:35:10;;;;;;;2.90;1.60;;;15.40;83.90;;;;;;5091109;28;20206;-78
2023/05/08 09:37:42;;;;;;;2.45;1.60;;;15.50;85.60;;;;;;5087760;28;20569;-78
2023/05/08 09:40:18;;;;;;;4.45;1.60;;;15.40;87.10;;;;;;5089700;28;20199;-78
2023/05/08 09:42:52;;;;;;;7.90;2.65;;;15.50;88.30;;;;;;5090735;28;20202;-77
2023/05/08 09:45:34;;;;;;;4.20;2.22;;;15.50;88.80;;;;;;5090486;28;20204;-76
2023/05/08 09:48:05;;;;;;;4.13;2.40;;;15.50;89.60;;;;;;5087146;28;20195;-76
2023/05/08 09:50:36;;;;;;;4.40;1.75;;;15.50;90.40;;;;;;5083151;28;20191;-78
2023/05/08 09:53:07;;;;;;;5.68;1.70;;;15.50;90.70;;;;;;5084346;28;20709;-77
2023/05/08 09:55:50;;;;;;;2.53;1.20;;;15.40;91.60;;;;;;5080613;28;20196;-77
2023/05/08 09:58:23;;;;;;;2.75;1.05;;;15.40;92.30;;;;;;5075754;28;20202;-76
2023/05/08 10:00:55;;;;;;;1.40;1.05;;;15.30;92.80;;;;;;5087646;28;20203;-77
2023/05/08 10:03:27;;;;;;;2.05;1.15;;;15.30;93.00;;;;;;5088969;28;20191;-78
2023/05/08 10:06:13;;;;;;;3.80;1.15;;;15.40;93.00;;;;;;5103736;28;20214;-77
2023/05/08 10:08:45;;;;;;;1.55;1.00;;;15.40;93.40;;;;;;5093632;28;20795;-78
2023/05/08 10:11:20;;;;;;;6.75;2.70;;;15.30;93.60;;;;;;5088159;28;20191;-77
2023/05/08 10:13:53;;;;;;;3.35;1.35;;;15.30;93.30;;;;;;5087094;28;20238;-78
2023/05/08 10:16:26;;;;;;;2.28;1.20;;;15.30;93.50;;;;;;5093465;28;20195;-78
2023/05/08 10:19:01;;;;;;;4.32;2.40;;;15.30;93.80;;;;;;5093078;28;20553;-78
2023/05/08 10:21:35;;;;;;;1.45;1.00;;;15.30;94.10;;;;;;5092626;28;20615;-78
2023/05/08 10:24:11;;;;;;;1.48;1.25;;;15.10;93.90;;;;;;5093456;28;20601;-77
2023/05/08 10:26:44;;;;;;;1.92;1.17;;;15.10;94.00;;;;;;5091164;28;20657;-77
2023/05/08 10:29:23;;;;;;;2.33;1.00;;;15.20;94.40;;;;;;5092971;28;20569;-77
2023/05/08 10:31:59;;;;;;;1.25;0.82;;;15.00;94.40;;;;;;5088630;28;20205;-77
2023/05/08 10:34:33;;;;;;;2.65;0.90;;;15.10;94.50;;;;;;5096571;28;20654;-76
2023/05/08 10:37:04;;;;;;;2.03;0.80;;;15.00;94.90;;;;;;5095089;28;20671;-76
2023/05/08 10:39:37;;;;;;;2.47;0.73;;;15.10;94.80;;;;;;5116012;28;20205;-77
2023/05/08 10:42:09;;;;;;;1.40;0.70;;;15.10;95.10;;;;;;5096851;28;20207;-78
2023/05/08 10:44:42;;;;;;;1.42;0.70;;;15.00;95.40;;;;;;5096416;28;20195;-77
2023/05/08 10:47:23;;;;;;;4.15;1.48;;;15.00;95.60;;;;;;5094730;28;20195;-78
2023/05/08 10:50:02;;;;;;;2.13;0.90;;;15.00;95.60;;;;;;5095521;28;20206;-77
2023/05/08 10:52:38;;;;;;;1.73;0.90;;;15.00;95.60;;;;;;5093724;28;20226;-77
2023/05/08 10:55:25;;;;;;;1.77;0.70;;;15.00;95.90;;;;;;5092760;28;20206;-79
2023/05/08 10:58:12;;;;;;;3.15;0.90;;;15.00;96.30;;;;;;5093859;28;20179;-77
2023/05/08 11:01:16;;;;;;;1.50;0.80;;;14.90;96.40;;;;;;5093571;28;20218;-78
2023/05/08 11:03:49;;;;;;;1.33;0.88;;;14.90;97.00;;;;;;5089976;28;20298;-77
2023/05/08 11:06:40;;;;;;;1.02;0.60;;;14.90;97.10;;;;;;5088298;28;20219;-77
2023/05/08 11:09:16;;;;;;;2.13;0.80;;;14.90;97.50;;;;;;5091051;28;20257;-77
2023/05/08 11:12:02;;;;;;;2.90;0.98;;;14.80;97.80;;;;;;5092530;28;20203;-78
2023/05/08 11:14:35;;;;;;;3.33;0.73;;;14.70;97.90;;;;;;5092983;28;20223;-78
2023/05/08 11:17:14;;;;;;;1.67;0.77;;;14.70;98.70;;;;;;5089616;28;20572;-77
2023/05/08 11:19:59;;;;;;;2.17;0.93;;;14.80;99.00;;;;;;5073354;28;20192;-78
2023/05/08 11:22:31;;;;;;;1.38;0.70;;;14.70;99.50;;;;;;5083593;28;20598;-77
2023/05/08 11:25:08;;;;;;;0.88;0.70;;;14.70;99.90;;;;;;5094836;28;20227;-78
2023/05/08 11:28:05;;;;;;;1.80;0.90;;;14.60;99.70;;;;;;5086689;28;20196;-78
2023/05/08 11:30:41;;;;;;;1.27;0.70;;;14.60;99.50;;;;;;5097059;28;20203;-78
2023/05/08 11:33:22;;;;;;;1.58;0.85;;;14.60;99.20;;;;;;5097830;28;20219;-76
2023/05/08 11:36:00;;;;;;;1.08;0.63;;;14.60;99.20;;;;;;5094052;28;20199;-77
2023/05/08 11:38:34;;;;;;;1.33;0.77;;;14.60;98.80;;;;;;5091844;28;20195;-76
2023/05/08 11:41:07;;;;;;;1.02;0.88;;;14.50;99.60;;;;;;5093859;28;20282;-76
2023/05/08 11:44:00;;;;;;;1.20;0.60;;;14.50;99.70;;;;;;5092560;28;20191;-77
2023/05/08 11:46:41;;;;;;;3.22;1.10;;;14.40;99.70;;;;;;5098367;28;20225;-77
2023/05/08 11:49:19;;;;;;;1.08;0.80;;;14.40;99.90;;;;;;5100452;28;20203;-77
2023/05/08 11:51:53;;;;;;;1.75;0.80;;;14.40;99.90;;;;;;5091814;28;20282;-77
2023/05/08 11:54:25;;;;;;;1.00;0.90;;;14.30;99.90;;;;;;5082794;28;20270;-77
2023/05/08 11:56:58;;;;;;;0.73;0.70;;;14.20;99.90;;;;;;5093737;28;20567;-76
2023/05/08 11:59:29;;;;;;;1.27;0.90;;;14.20;99.90;;;;;;5090553;28;20205;-77
2023/05/08 12:02:00;;;;;;;3.95;0.80;;;14.10;99.90;;;;;;5093897;28;20213;-77
2023/05/08 12:04:33;;;;;;;1.77;0.65;;;14.20;99.90;;;;;;5094401;28;20202;-77
2023/05/08 12:07:05;;;;;;;3.03;0.82;;;14.10;99.90;;;;;;5091882;28;20212;-77
2023/05/08 12:09:37;;;;;;;1.50;0.55;;;14.10;99.90;;;;;;5086543;28;20199;-76
2023/05/08 12:12:08;;;;;;;0.70;0.60;;;14.10;99.90;;;;;;5092439;28;20191;-77
2023/05/08 12:14:39;;;;;;;1.35;0.90;;;14.00;99.90;;;;;;5093613;28;20666;-78
2023/05/08 12:17:11;;;;;;;0.98;0.70;;;13.90;99.90;;;;;;5091637;28;20195;-78
2023/05/08 12:19:44;;;;;;;0.80;0.70;;;13.90;99.90;;;;;;5092201;28;20464;-78
2023/05/08 12:22:15;;;;;;;1.75;0.70;;;13.90;99.90;;;;;;5088287;28;20196;-77
2023/05/08 12:24:47;;;;;;;0.73;0.60;;;13.80;99.90;;;;;;5090308;28;20200;-77
2023/05/08 12:27:18;;;;;;;0.73;0.60;;;13.70;99.90;;;;;;5091256;28;20224;-77
2023/05/08 12:29:49;;;;;;;0.60;0.60;;;13.70;99.90;;;;;;5097774;28;20217;-77
2023/05/08 12:32:21;;;;;;;1.52;0.73;;;13.70;99.90;;;;;;5089595;28;20195;-76
2023/05/08 12:34:55;;;;;;;3.33;0.80;;;13.80;99.90;;;;;;5090834;28;20198;-75
2023/05/08 12:37:30;;;;;;;1.35;0.75;;;13.70;99.90;;;;;;5097464;28;20207;-76
2023/05/08 12:40:02;;;;;;;3.60;0.98;;;13.70;99.90;;;;;;5099967;28;20207;-78
2023/05/08 12:42:53;;;;;;;1.00;0.80;;;13.70;99.90;;;;;;5090344;28;20221;-76
2023/05/08 12:45:25;;;;;;;1.40;0.90;;;13.60;99.90;;;;;;5091639;28;20203;-76
2023/05/08 12:48:00;;;;;;;2.13;1.10;;;13.60;99.90;;;;;;5089794;28;20219;-76
2023/05/08 12:50:37;;;;;;;0.90;0.90;;;13.60;99.90;;;;;;5089206;28;20195;-75
2023/05/08 12:53:11;;;;;;;0.90;0.70;;;13.50;99.90;;;;;;5094495;28;20226;-76
2023/05/08 12:55:52;;;;;;;0.73;0.63;;;13.50;99.90;;;;;;5081740;28;20801;-78
2023/05/08 12:58:26;;;;;;;1.05;0.70;;;13.60;99.90;;;;;;5095578;28;20677;-76
2023/05/08 13:01:08;;;;;;;1.40;0.60;;;13.60;99.90;;;;;;5094355;28;20618;-77
2023/05/08 13:03:40;;;;;;;1.17;0.70;;;13.60;99.90;;;;;;5097072;28;20276;-77
2023/05/08 13:06:23;;;;;;;1.30;0.77;;;13.60;99.90;;;;;;5098721;28;20191;-75
2023/05/08 13:08:57;;;;;;;2.10;0.93;;;13.50;99.90;;;;;;5095364;28;20203;-75
2023/05/08 13:11:37;;;;;;;1.42;0.70;;;13.50;99.90;;;;;;5093569;28;20191;-77
2023/05/08 13:14:08;;;;;;;0.82;0.70;;;13.50;99.90;;;;;;5100343;28;20234;-76
2023/05/08 13:16:46;;;;;;;0.80;0.80;;;13.60;99.90;;;;;;5095823;28;20221;-76
2023/05/08 13:19:17;;;;;;;1.92;0.70;;;13.60;99.90;;;;;;5098306;28;20233;-75
2023/05/08 13:21:52;;;;;;;2.63;0.70;;;13.60;99.90;;;;;;5093146;28;20204;-76
2023/05/08 13:24:24;;;;;;;1.42;0.90;;;13.40;99.90;;;;;;5095896;28;20233;-76